createdAt,value
2018-09-06T00:00:59.739Z,4.67
2018-09-06T00:03:27.523Z,4.77
2018-09-06T00:05:55.291Z,5.30
2018-09-06T00:08:23.509Z,5.30
2018-09-06T00:10:51.382Z,5.23
2018-09-06T00:13:19.299Z,5.07
2018-09-06T00:15:47.347Z,5.23
2018-09-06T00:18:15.234Z,5.20
2018-09-06T00:20:43.091Z,4.80
2018-09-06T00:23:10.939Z,5.77
2018-09-06T00:25:38.854Z,5.10
2018-09-06T00:28:06.812Z,4.53
2018-09-06T00:30:34.731Z,4.30
2018-09-06T00:33:02.512Z,4.73
2018-09-06T00:35:30.373Z,4.27
2018-09-06T00:37:58.279Z,4.17
2018-09-06T00:40:26.051Z,4.50
2018-09-06T00:42:53.874Z,4.37
2018-09-06T00:45:21.740Z,4.50
2018-09-06T00:47:49.718Z,4.53
2018-09-06T00:50:18.714Z,4.93
2018-09-06T00:52:48.339Z,5.60
2018-09-06T00:55:16.167Z,5.83
2018-09-06T00:57:44.140Z,5.00
2018-09-06T01:00:12.070Z,4.80
2018-09-06T01:02:39.859Z,5.17
2018-09-06T01:05:07.860Z,5.23
2018-09-06T01:07:35.671Z,5.27
2018-09-06T01:10:03.743Z,5.30
2018-09-06T01:12:31.611Z,4.80
2018-09-06T01:14:59.516Z,5.67
2018-09-06T01:17:27.400Z,5.63
2018-09-06T01:19:55.343Z,5.87
2018-09-06T01:22:23.356Z,5.00
2018-09-06T01:24:51.122Z,4.77
2018-09-06T01:27:18.964Z,4.57
2018-09-06T01:29:46.811Z,5.13
2018-09-06T01:32:14.579Z,4.97
2018-09-06T01:34:42.430Z,5.53
2018-09-06T01:37:10.801Z,4.80
2018-09-06T01:39:39.760Z,5.17
2018-09-06T01:42:08.438Z,4.80
2018-09-06T01:44:36.203Z,5.20
2018-09-06T01:47:04.084Z,5.43
2018-09-06T01:49:32.493Z,5.07
2018-09-06T01:52:00.638Z,5.13
2018-09-06T01:54:28.492Z,5.87
2018-09-06T01:56:56.274Z,4.93
2018-09-06T01:59:24.098Z,4.90
2018-09-06T02:01:51.899Z,5.17
2018-09-06T02:04:19.707Z,5.33
2018-09-06T02:06:47.668Z,5.60
2018-09-06T02:09:15.562Z,5.30
2018-09-06T02:11:43.359Z,5.30
2018-09-06T02:14:11.179Z,5.10
2018-09-06T02:16:39.003Z,5.10
2018-09-06T02:19:06.875Z,5.10
2018-09-06T02:21:34.767Z,5.60
2018-09-06T02:24:02.547Z,4.60
2018-09-06T02:26:30.618Z,4.73
2018-09-06T02:28:58.424Z,5.40
2018-09-06T02:31:26.208Z,5.60
2018-09-06T02:33:54.034Z,4.47
2018-09-06T02:36:21.848Z,5.03
2018-09-06T02:38:49.743Z,5.43
2018-09-06T02:41:17.497Z,4.43
2018-09-06T02:43:45.354Z,4.87
2018-09-06T02:46:13.146Z,5.20
2018-09-06T02:48:42.143Z,4.67
2018-09-06T02:51:21.508Z,4.37
2018-09-06T02:53:49.465Z,4.17
2018-09-06T02:56:18.098Z,6.00
2018-09-06T02:58:45.865Z,5.40
2018-09-06T03:01:13.631Z,5.13
2018-09-06T03:03:41.524Z,5.30
2018-09-06T03:06:09.917Z,5.00
2018-09-06T03:08:37.908Z,5.23
2018-09-06T03:11:15.430Z,5.57
2018-09-06T03:13:43.319Z,5.77
2018-09-06T03:16:11.222Z,6.00
2018-09-06T03:18:39.120Z,4.63
2018-09-06T03:21:06.907Z,5.57
2018-09-06T03:23:34.681Z,5.20
2018-09-06T03:26:04.543Z,5.70
2018-09-06T03:28:32.335Z,6.10
2018-09-06T03:31:00.215Z,5.37
2018-09-06T03:33:28.123Z,5.37
2018-09-06T03:35:55.977Z,5.53
2018-09-06T03:38:23.794Z,4.90
2018-09-06T03:40:51.566Z,4.77
2018-09-06T03:43:19.447Z,4.57
2018-09-06T03:45:47.263Z,5.50
2018-09-06T03:48:15.093Z,5.10
2018-09-06T03:50:42.903Z,6.20
2018-09-06T03:53:10.783Z,6.10
2018-09-06T03:55:38.643Z,5.63
2018-09-06T03:58:06.546Z,5.30
2018-09-06T04:00:34.323Z,5.50
2018-09-06T04:03:02.100Z,5.40
2018-09-06T04:05:29.920Z,5.60
2018-09-06T04:07:57.722Z,5.30
2018-09-06T04:10:25.622Z,5.60
2018-09-06T04:12:53.405Z,5.50
2018-09-06T04:15:21.178Z,6.97
2018-09-06T04:17:49.071Z,5.80
2018-09-06T04:20:16.955Z,5.43
2018-09-06T04:22:52.015Z,6.30
2018-09-06T04:25:20.400Z,6.17
2018-09-06T04:27:48.608Z,6.40
2018-09-06T04:30:16.558Z,5.67
2018-09-06T04:32:44.531Z,6.53
2018-09-06T04:35:12.440Z,5.97
2018-09-06T04:37:40.282Z,6.17
2018-09-06T04:40:08.419Z,6.47
2018-09-06T04:42:36.237Z,6.53
2018-09-06T04:45:05.191Z,6.40
2018-09-06T04:47:33.011Z,6.30
2018-09-06T04:50:00.874Z,6.07
2018-09-06T04:52:28.809Z,6.70
2018-09-06T04:54:56.914Z,5.93
2018-09-06T04:57:25.298Z,6.87
2018-09-06T04:59:53.161Z,6.20
2018-09-06T05:02:21.368Z,5.97
2018-09-06T05:04:49.241Z,7.07
2018-09-06T05:07:17.184Z,7.77
2018-09-06T05:09:45.100Z,6.27
2018-09-06T05:12:13.063Z,6.63
2018-09-06T05:14:40.944Z,6.70
2018-09-06T05:17:08.797Z,7.10
2018-09-06T05:19:36.656Z,6.97
2018-09-06T05:22:04.611Z,6.57
2018-09-06T05:24:32.353Z,7.10
2018-09-06T05:27:00.236Z,7.23
2018-09-06T05:29:28.081Z,6.50
2018-09-06T05:31:55.907Z,6.43
2018-09-06T05:34:23.769Z,7.00
2018-09-06T05:36:51.610Z,6.97
2018-09-06T05:39:19.419Z,7.30
2018-09-06T05:41:47.247Z,7.47
2018-09-06T05:44:15.147Z,7.37
2018-09-06T05:46:43.118Z,7.07
2018-09-06T05:49:10.931Z,7.23
2018-09-06T05:51:38.775Z,6.80
2018-09-06T05:54:07.167Z,6.43
2018-09-06T05:56:34.945Z,6.90
2018-09-06T05:59:02.710Z,7.03
2018-09-06T06:01:30.652Z,6.67
2018-09-06T06:03:58.446Z,7.30
2018-09-06T06:06:26.338Z,7.43
2018-09-06T06:08:54.139Z,7.80
2018-09-06T06:11:22.315Z,6.73
2018-09-06T06:13:50.163Z,7.70
2018-09-06T06:16:17.958Z,7.23
2018-09-06T06:18:45.971Z,6.80
2018-09-06T06:21:16.060Z,6.77
2018-09-06T06:23:43.912Z,7.50
2018-09-06T06:26:11.859Z,8.30
2018-09-06T06:28:39.562Z,7.30
2018-09-06T06:31:07.451Z,7.33
2018-09-06T06:33:35.237Z,6.70
2018-09-06T06:36:03.056Z,7.03
2018-09-06T06:38:30.904Z,7.63
2018-09-06T06:40:58.691Z,7.37
2018-09-06T06:43:26.485Z,6.97
2018-09-06T06:45:54.300Z,7.47
2018-09-06T06:48:22.223Z,7.50
2018-09-06T06:50:50.021Z,7.17
2018-09-06T06:53:18.277Z,6.47
2018-09-06T06:55:46.135Z,6.50
2018-09-06T06:58:13.970Z,7.23
2018-09-06T07:00:43.007Z,7.57
2018-09-06T07:03:12.422Z,7.07
2018-09-06T07:05:41.110Z,7.73
2018-09-06T07:08:09.383Z,7.50
2018-09-06T07:10:37.551Z,7.23
2018-09-06T07:13:05.345Z,7.10
2018-09-06T07:15:33.112Z,7.73
2018-09-06T07:18:00.960Z,6.80
2018-09-06T07:20:28.765Z,6.67
2018-09-06T07:22:56.608Z,7.43
2018-09-06T07:25:24.395Z,6.50
2018-09-06T07:27:52.168Z,7.23
2018-09-06T07:30:19.942Z,6.97
2018-09-06T07:32:47.816Z,7.63
2018-09-06T07:35:15.654Z,6.47
2018-09-06T07:37:43.407Z,8.03
2018-09-06T07:40:11.245Z,8.40
2018-09-06T07:42:39.096Z,7.63
2018-09-06T07:45:07.080Z,7.13
2018-09-06T07:47:34.915Z,7.53
2018-09-06T07:50:03.345Z,7.37
2018-09-06T07:52:32.026Z,7.77
2018-09-06T07:54:59.883Z,7.23
2018-09-06T07:57:27.764Z,6.80
2018-09-06T07:59:55.527Z,7.53
2018-09-06T08:02:23.970Z,6.90
2018-09-06T08:05:02.943Z,7.10
2018-09-06T08:07:35.279Z,7.47
2018-09-06T08:10:04.399Z,7.20
2018-09-06T08:12:37.778Z,6.87
2018-09-06T08:15:09.119Z,7.03
2018-09-06T08:17:43.171Z,6.73
2018-09-06T08:20:11.848Z,6.47
2018-09-06T08:22:45.695Z,6.70
2018-09-06T08:25:17.798Z,5.37
2018-09-06T08:27:53.224Z,6.10
2018-09-06T08:30:26.210Z,5.43
2018-09-06T08:32:55.911Z,6.23
2018-09-06T08:35:29.647Z,6.23
2018-09-06T08:38:07.079Z,6.03
2018-09-06T08:40:39.638Z,6.60
2018-09-06T08:43:14.487Z,5.70
2018-09-06T08:45:48.922Z,5.47
2018-09-06T08:48:26.492Z,5.47
2018-09-06T08:51:05.999Z,5.13
2018-09-06T08:53:42.660Z,5.13
2018-09-06T08:56:15.300Z,5.00
2018-09-06T08:58:45.411Z,5.90
2018-09-06T09:01:18.415Z,6.03
2018-09-06T09:03:46.734Z,6.07
2018-09-06T09:06:14.643Z,5.37
2018-09-06T09:08:42.425Z,5.47
2018-09-06T09:11:10.277Z,5.37
2018-09-06T09:13:38.076Z,5.83
2018-09-06T09:16:06.030Z,4.97
2018-09-06T09:18:35.528Z,4.87
2018-09-06T09:21:05.164Z,5.50
2018-09-06T09:23:38.883Z,5.00
2018-09-06T09:26:07.771Z,5.13
2018-09-06T09:28:35.732Z,5.23
2018-09-06T09:31:05.131Z,5.73
2018-09-06T09:33:33.568Z,5.47
2018-09-06T09:36:03.058Z,5.57
2018-09-06T09:38:31.555Z,5.90
2018-09-06T09:41:00.420Z,5.10
2018-09-06T09:43:30.226Z,5.30
2018-09-06T09:48:32.509Z,4.43
2018-09-06T09:51:00.984Z,5.27
2018-09-06T09:53:33.098Z,5.23
2018-09-06T09:56:01.520Z,5.40
2018-09-06T09:58:30.138Z,5.30
2018-09-06T10:00:59.126Z,5.83
2018-09-06T10:03:32.748Z,5.67
2018-09-06T10:06:06.190Z,6.10
2018-09-06T10:08:39.768Z,5.30
2018-09-06T10:11:08.450Z,6.07
2018-09-06T10:13:36.792Z,5.80
2018-09-06T10:16:04.627Z,5.90
2018-09-06T10:18:32.563Z,5.33
2018-09-06T10:21:00.607Z,5.80
2018-09-06T10:23:28.540Z,6.33
2018-09-06T10:25:56.673Z,6.47
2018-09-06T10:28:24.661Z,5.60
2018-09-06T10:30:52.543Z,5.70
2018-09-06T10:33:20.394Z,6.30
2018-09-06T10:35:48.277Z,5.87
2018-09-06T10:38:16.168Z,5.50
2018-09-06T10:40:44.112Z,5.97
2018-09-06T10:43:11.882Z,6.17
2018-09-06T10:45:39.755Z,5.47
2018-09-06T10:48:07.635Z,5.93
2018-09-06T10:50:35.503Z,5.93
2018-09-06T10:53:03.378Z,5.43
2018-09-06T10:55:31.341Z,6.10
2018-09-06T10:58:04.762Z,5.30
2018-09-06T11:00:42.021Z,5.33
2018-09-06T11:03:13.050Z,5.37
2018-09-06T11:05:45.513Z,5.63
2018-09-06T11:08:21.010Z,5.10
2018-09-06T11:10:51.499Z,5.83
2018-09-06T11:13:24.674Z,5.03
2018-09-06T11:16:01.047Z,5.53
2018-09-06T11:18:38.442Z,5.23
2018-09-06T11:21:06.517Z,6.07
2018-09-06T11:23:34.341Z,5.67
2018-09-06T11:26:02.180Z,5.73
2018-09-06T11:28:29.996Z,6.20
2018-09-06T11:30:57.853Z,5.90
2018-09-06T11:33:26.268Z,5.83
2018-09-06T11:35:54.191Z,6.13
2018-09-06T11:38:22.068Z,5.07
2018-09-06T11:40:49.949Z,6.60
2018-09-06T11:43:17.911Z,5.93
2018-09-06T11:45:45.736Z,6.43
2018-09-06T11:48:13.664Z,6.97
2018-09-06T11:50:41.684Z,5.87
2018-09-06T11:53:09.506Z,6.27
2018-09-06T11:55:37.374Z,6.00
2018-09-06T11:58:05.304Z,5.80
2018-09-06T12:00:35.194Z,6.03
2018-09-06T12:03:03.095Z,6.20
2018-09-06T12:05:30.922Z,6.57
2018-09-06T12:07:58.855Z,6.37
2018-09-06T12:10:26.626Z,6.60
2018-09-06T12:12:54.490Z,5.47
2018-09-06T12:15:22.259Z,6.03
2018-09-06T12:17:50.160Z,6.00
2018-09-06T12:20:18.062Z,6.43
2018-09-06T12:22:45.962Z,6.03
2018-09-06T12:25:13.771Z,6.47
2018-09-06T12:27:42.395Z,6.90
2018-09-06T12:30:10.374Z,5.97
2018-09-06T12:32:38.240Z,5.87
2018-09-06T12:35:06.185Z,5.90
2018-09-06T12:37:34.063Z,5.80
2018-09-06T12:40:01.965Z,5.43
2018-09-06T12:42:29.865Z,5.43
2018-09-06T12:44:57.666Z,6.40
2018-09-06T12:47:25.603Z,5.37
2018-09-06T12:49:53.471Z,7.17
2018-09-06T12:52:21.263Z,6.23
2018-09-06T12:54:49.091Z,6.50
2018-09-06T12:57:16.974Z,5.43
2018-09-06T12:59:44.803Z,5.93
2018-09-06T13:02:12.603Z,6.90
2018-09-06T13:04:40.482Z,6.27
2018-09-06T13:07:08.271Z,6.83
2018-09-06T13:09:36.062Z,6.77
2018-09-06T13:12:03.943Z,6.30
2018-09-06T13:14:31.718Z,6.33
2018-09-06T13:16:59.607Z,6.03
2018-09-06T13:19:27.771Z,6.20
2018-09-06T13:21:55.619Z,6.27
2018-09-06T13:24:23.407Z,5.47
2018-09-06T13:26:51.264Z,6.10
2018-09-06T13:29:19.125Z,6.03
2018-09-06T13:31:47.073Z,5.43
2018-09-06T13:34:14.908Z,6.23
2018-09-06T13:36:42.918Z,5.83
2018-09-06T13:39:11.551Z,6.23
2018-09-06T13:41:39.444Z,5.27
2018-09-06T13:44:07.227Z,6.10
2018-09-06T13:46:35.227Z,6.37
2018-09-06T13:49:03.031Z,5.90
2018-09-06T13:51:30.943Z,5.43
2018-09-06T13:53:58.831Z,5.60
2018-09-06T13:56:26.704Z,6.20
2018-09-06T13:58:54.659Z,5.47
2018-09-06T14:01:22.528Z,5.63
2018-09-06T14:03:50.466Z,5.67
2018-09-06T14:06:18.460Z,5.87
2018-09-06T14:08:46.304Z,5.43
2018-09-06T14:11:14.152Z,4.97
2018-09-06T14:13:41.986Z,4.90
2018-09-06T14:16:09.851Z,5.87
2018-09-06T14:18:37.795Z,6.47
2018-09-06T14:21:05.683Z,5.50
2018-09-06T14:23:33.471Z,5.80
2018-09-06T14:26:01.261Z,5.57
2018-09-06T14:28:29.042Z,5.27
2018-09-06T14:30:56.943Z,5.27
2018-09-06T14:33:24.841Z,6.37
2018-09-06T14:35:52.784Z,5.43
2018-09-06T14:38:20.660Z,6.00
2018-09-06T14:40:48.477Z,5.93
2018-09-06T14:43:16.265Z,5.73
2018-09-06T14:45:44.131Z,6.43
2018-09-06T14:48:11.961Z,5.70
2018-09-06T14:50:39.769Z,5.80
2018-09-06T14:53:07.619Z,5.43
2018-09-06T14:55:35.403Z,5.87
2018-09-06T14:58:03.276Z,5.60
2018-09-06T15:00:31.110Z,5.77
2018-09-06T15:02:58.963Z,5.83
2018-09-06T15:05:27.455Z,5.57
2018-09-06T15:07:55.270Z,5.67
2018-09-06T15:10:23.107Z,7.00
2018-09-06T15:12:50.906Z,6.13
2018-09-06T15:15:18.848Z,5.90
2018-09-06T15:17:46.644Z,5.50
2018-09-06T15:20:14.531Z,5.97
2018-09-06T15:22:42.327Z,5.97
2018-09-06T15:25:10.174Z,5.83
2018-09-06T15:27:38.139Z,6.07
2018-09-06T15:30:06.044Z,5.03
2018-09-06T15:32:33.872Z,5.87
2018-09-06T15:35:01.651Z,6.17
2018-09-06T15:37:29.496Z,6.00
2018-09-06T15:39:57.538Z,6.03
2018-09-06T15:42:34.218Z,5.60
2018-09-06T15:45:02.051Z,7.27
2018-09-06T15:47:29.836Z,6.83
2018-09-06T15:49:57.695Z,6.90
2018-09-06T15:52:25.551Z,6.73
2018-09-06T15:54:53.488Z,6.73
2018-09-06T15:57:21.272Z,5.33
2018-09-06T15:59:49.308Z,6.47
2018-09-06T16:02:17.171Z,6.40
2018-09-06T16:04:45.047Z,6.67
2018-09-06T16:07:12.868Z,10.93
2018-09-06T16:09:40.739Z,11.63
2018-09-06T16:12:08.551Z,12.10
2018-09-06T16:14:36.331Z,11.10
2018-09-06T16:17:04.358Z,11.30
2018-09-06T16:19:32.168Z,9.40
2018-09-06T16:22:00.039Z,9.17
2018-09-06T16:24:27.863Z,9.27
2018-09-06T16:26:55.733Z,9.07
2018-09-06T16:29:23.540Z,8.07
2018-09-06T16:31:51.343Z,7.17
2018-09-06T16:34:19.299Z,7.23
2018-09-06T16:36:47.184Z,6.33
2018-09-06T16:39:20.856Z,6.60
2018-09-06T16:41:56.985Z,6.37
2018-09-06T16:44:27.608Z,6.93
2018-09-06T16:46:55.475Z,6.90
2018-09-06T16:49:23.306Z,6.67
2018-09-06T16:51:51.199Z,6.90
2018-09-06T16:54:19.424Z,6.60
2018-09-06T16:56:47.223Z,7.40
2018-09-06T16:59:15.010Z,7.17
2018-09-06T17:01:43.078Z,8.07
2018-09-06T17:04:10.851Z,7.70
2018-09-06T17:06:38.736Z,8.40
2018-09-06T17:09:07.239Z,7.13
2018-09-06T17:11:35.063Z,7.73
2018-09-06T17:14:02.854Z,7.63
2018-09-06T17:16:30.910Z,7.40
2018-09-06T17:18:59.261Z,8.80
2018-09-06T17:21:27.062Z,7.80
2018-09-06T17:23:54.981Z,8.60
2018-09-06T17:26:22.967Z,7.83
2018-09-06T17:28:50.981Z,7.93
2018-09-06T17:31:18.786Z,7.57
2018-09-06T17:33:46.577Z,7.83
2018-09-06T17:36:14.496Z,8.33
2018-09-06T17:38:42.461Z,7.63
2018-09-06T17:41:10.541Z,9.80
2018-09-06T17:43:38.355Z,8.07
2018-09-06T17:46:06.146Z,8.70
2018-09-06T17:48:33.995Z,7.67
2018-09-06T17:51:01.786Z,8.53
2018-09-06T17:53:29.735Z,7.93
2018-09-06T17:55:57.510Z,9.47
2018-09-06T17:58:25.404Z,8.43
2018-09-06T18:00:58.763Z,7.70
2018-09-06T18:03:26.580Z,9.20
2018-09-06T18:05:54.460Z,9.80
2018-09-06T18:08:22.324Z,9.23
2018-09-06T18:10:50.256Z,9.43
2018-09-06T18:13:18.083Z,8.53
2018-09-06T18:15:45.915Z,8.70
2018-09-06T18:18:13.748Z,9.00
2018-09-06T18:20:42.735Z,8.53
2018-09-06T18:23:10.567Z,8.77
2018-09-06T18:25:38.532Z,7.60
2018-09-06T18:28:06.394Z,8.00
2018-09-06T18:30:34.315Z,8.47
2018-09-06T18:33:02.188Z,7.20
2018-09-06T18:35:30.060Z,7.10
2018-09-06T18:37:58.103Z,8.03
2018-09-06T18:40:26.400Z,7.47
2018-09-06T18:42:54.370Z,8.50
2018-09-06T18:45:22.319Z,8.33
2018-09-06T18:47:50.217Z,8.37
2018-09-06T18:50:18.067Z,8.23
2018-09-06T18:52:46.029Z,8.70
2018-09-06T18:55:13.900Z,8.30
2018-09-06T18:57:41.986Z,8.30
2018-09-06T19:00:09.791Z,8.33
2018-09-06T19:02:37.659Z,8.83
2018-09-06T19:05:05.478Z,8.37
2018-09-06T19:07:36.117Z,8.37
2018-09-06T19:10:04.037Z,7.43
2018-09-06T19:12:31.866Z,7.87
2018-09-06T19:14:59.734Z,8.60
2018-09-06T19:17:27.527Z,6.77
2018-09-06T19:19:55.430Z,8.30
2018-09-06T19:22:23.285Z,7.60
2018-09-06T19:24:51.197Z,7.67
2018-09-06T19:27:18.995Z,8.03
2018-09-06T19:29:47.074Z,7.90
2018-09-06T19:32:14.906Z,9.23
2018-09-06T19:34:42.715Z,8.63
2018-09-06T19:37:10.571Z,8.90
2018-09-06T19:39:38.411Z,8.53
2018-09-06T19:42:05.845Z,7.57
2018-09-06T19:44:34.123Z,8.47
2018-09-06T19:47:02.274Z,8.60
2018-09-06T19:49:30.134Z,8.33
2018-09-06T19:51:58.108Z,8.77
2018-09-06T19:54:26.003Z,8.80
2018-09-06T19:56:53.839Z,8.57
2018-09-06T19:59:21.625Z,7.40
2018-09-06T20:01:49.568Z,9.00
2018-09-06T20:04:17.468Z,8.70
2018-09-06T20:06:45.317Z,9.43
2018-09-06T20:09:13.289Z,8.10
2018-09-06T20:11:41.191Z,7.77
2018-09-06T20:14:08.983Z,8.53
2018-09-06T20:16:36.791Z,8.23
2018-09-06T20:19:04.643Z,7.20
2018-09-06T20:21:32.523Z,7.27
2018-09-06T20:24:00.381Z,7.80
2018-09-06T20:26:28.275Z,7.90
2018-09-06T20:28:56.055Z,7.73
2018-09-06T20:31:23.859Z,8.07
2018-09-06T20:33:51.700Z,7.97
2018-09-06T20:36:19.616Z,8.03
2018-09-06T20:38:47.402Z,7.77
2018-09-06T20:41:15.255Z,6.60
2018-09-06T20:43:43.099Z,7.67
2018-09-06T20:46:10.863Z,7.87
2018-09-06T20:48:38.713Z,8.40
2018-09-06T20:51:06.746Z,8.17
2018-09-06T20:53:34.521Z,7.53
2018-09-06T20:56:02.366Z,7.50
2018-09-06T20:58:30.150Z,6.97
2018-09-06T21:00:58.042Z,7.87
2018-09-06T21:03:25.877Z,8.13
2018-09-06T21:05:53.727Z,7.20
2018-09-06T21:08:21.619Z,8.13
2018-09-06T21:10:49.502Z,7.17
2018-09-06T21:13:17.308Z,7.23
2018-09-06T21:15:45.137Z,7.20
2018-09-06T21:18:12.980Z,7.73
2018-09-06T21:20:40.854Z,6.77
2018-09-06T21:23:08.869Z,7.57
2018-09-06T21:25:36.663Z,7.37
2018-09-06T21:28:05.196Z,8.07
2018-09-06T21:30:33.032Z,7.97
2018-09-06T21:33:00.883Z,7.57
2018-09-06T21:35:28.726Z,7.73
2018-09-06T21:37:56.551Z,7.90
2018-09-06T21:40:24.376Z,9.03
2018-09-06T21:42:52.264Z,7.00
2018-09-06T21:45:20.112Z,7.47
2018-09-06T21:47:47.959Z,7.27
2018-09-06T21:50:16.757Z,7.27
2018-09-06T21:52:44.779Z,6.67
2018-09-06T21:55:12.675Z,7.13
2018-09-06T21:57:40.438Z,7.00
2018-09-06T22:00:08.267Z,7.30
2018-09-06T22:02:41.293Z,6.70
2018-09-06T22:05:09.118Z,7.10
2018-09-06T22:07:37.063Z,7.13
2018-09-06T22:10:04.860Z,7.30
2018-09-06T22:12:32.645Z,7.80
2018-09-06T22:15:00.533Z,7.13
2018-09-06T22:17:28.367Z,7.57
2018-09-06T22:19:56.242Z,6.83
2018-09-06T22:22:24.100Z,6.60
2018-09-06T22:24:51.876Z,7.07
2018-09-06T22:27:19.736Z,7.57
2018-09-06T22:29:47.579Z,7.00
2018-09-06T22:32:15.467Z,6.80
2018-09-06T22:34:43.296Z,6.43
2018-09-06T22:37:11.074Z,6.77
2018-09-06T22:39:38.873Z,6.47
2018-09-06T22:42:06.673Z,7.47
2018-09-06T22:44:34.463Z,6.53
2018-09-06T22:47:02.235Z,6.73
2018-09-06T22:49:30.087Z,7.00
2018-09-06T22:51:57.928Z,6.37
2018-09-06T22:54:25.707Z,6.33
2018-09-06T22:56:53.660Z,6.53
2018-09-06T22:59:21.544Z,7.23
2018-09-06T23:01:49.430Z,6.50
2018-09-06T23:04:17.197Z,6.67
2018-09-06T23:06:45.006Z,6.97
2018-09-06T23:09:12.775Z,6.50
2018-09-06T23:11:40.706Z,7.07
2018-09-06T23:14:08.511Z,7.47
2018-09-06T23:16:36.339Z,6.90
2018-09-06T23:19:04.148Z,7.40
2018-09-06T23:21:31.947Z,7.63
2018-09-06T23:23:59.799Z,7.23
2018-09-06T23:26:27.604Z,7.87
2018-09-06T23:28:55.439Z,7.00
2018-09-06T23:31:23.215Z,7.90
2018-09-06T23:33:51.051Z,7.13
2018-09-06T23:36:18.878Z,7.83
2018-09-06T23:38:46.689Z,8.03
2018-09-06T23:41:14.532Z,7.87
2018-09-06T23:43:42.329Z,8.87
2018-09-06T23:46:10.132Z,7.50
2018-09-06T23:48:37.910Z,7.37
2018-09-06T23:51:05.719Z,6.63
2018-09-06T23:53:33.496Z,7.87
2018-09-06T23:56:01.371Z,6.70
2018-09-06T23:58:29.258Z,7.50
